createdAt,value
2019-02-08T05:00:52.462Z,1006.34
2019-02-08T05:01:52.339Z,1006.30
2019-02-08T05:03:44.997Z,1006.29
2019-02-08T05:04:44.878Z,1006.30
2019-02-08T05:06:37.557Z,1006.28
2019-02-08T05:07:37.423Z,1006.35
2019-02-08T05:09:30.086Z,1006.27
2019-02-08T05:10:29.970Z,1006.25
2019-02-08T05:12:22.670Z,1006.19
2019-02-08T05:13:22.550Z,1006.16
2019-02-08T05:15:15.201Z,1006.17
2019-02-08T05:16:15.087Z,1006.18
2019-02-08T05:18:07.770Z,1006.10
2019-02-08T05:19:07.639Z,1006.11
2019-02-08T05:21:00.325Z,1006.09
2019-02-08T05:22:00.179Z,1006.11
2019-02-08T05:23:52.861Z,1006.03
2019-02-08T05:24:52.724Z,1006.03
2019-02-08T05:26:45.523Z,1005.99
2019-02-08T05:27:45.274Z,1005.96
2019-02-08T05:29:37.930Z,1006.04
2019-02-08T05:30:37.817Z,1006.01
2019-02-08T05:32:30.498Z,1006.02
2019-02-08T05:33:30.367Z,1005.98
2019-02-08T05:35:23.035Z,1006.07
2019-02-08T05:36:22.921Z,1006.07
2019-02-08T05:38:15.594Z,1006.07
2019-02-08T05:39:15.461Z,1006.12
2019-02-08T05:41:08.125Z,1006.12
2019-02-08T05:42:08.014Z,1006.10
2019-02-08T05:44:00.697Z,1006.20
2019-02-08T05:45:00.565Z,1006.19
2019-02-08T05:46:53.245Z,1006.20
2019-02-08T05:47:53.111Z,1006.10
2019-02-08T05:49:45.776Z,1006.15
2019-02-08T05:50:45.661Z,1006.21
2019-02-08T05:52:38.345Z,1006.15
2019-02-08T05:53:38.212Z,1006.14
2019-02-08T05:55:30.890Z,1006.11
2019-02-08T05:56:30.759Z,1006.13
2019-02-08T05:58:23.435Z,1006.08
2019-02-08T05:59:23.307Z,1005.99
2019-02-08T06:01:16.125Z,1006.00
2019-02-08T06:02:15.857Z,1006.05
2019-02-08T06:04:08.544Z,1005.95
2019-02-08T06:05:08.414Z,1005.97
2019-02-08T06:07:01.097Z,1005.97
2019-02-08T06:08:00.960Z,1005.94
2019-02-08T06:09:53.617Z,1005.96
2019-02-08T06:10:53.509Z,1005.88
2019-02-08T06:12:46.198Z,1005.95
2019-02-08T06:13:46.070Z,1005.89
2019-02-08T06:15:38.742Z,1005.88
2019-02-08T06:16:38.626Z,1005.90
2019-02-08T06:18:31.303Z,1005.91
2019-02-08T06:19:31.170Z,1005.88
2019-02-08T06:21:23.841Z,1005.81
2019-02-08T06:22:23.721Z,1005.85
2019-02-08T06:24:16.398Z,1005.86
2019-02-08T06:25:16.266Z,1005.83
2019-02-08T06:27:08.975Z,1005.83
2019-02-08T06:28:09.021Z,1005.88
2019-02-08T06:30:01.487Z,1005.85
2019-02-08T06:31:01.360Z,1005.83
2019-02-08T06:32:54.032Z,1005.86
2019-02-08T06:33:53.904Z,1005.91
2019-02-08T06:35:46.562Z,1005.90
2019-02-08T06:36:46.449Z,1005.90
2019-02-08T06:38:39.127Z,1005.93
2019-02-08T06:39:38.990Z,1005.92
2019-02-08T06:41:31.658Z,1005.92
2019-02-08T06:42:31.549Z,1005.96
2019-02-08T06:44:24.237Z,1005.89
2019-02-08T06:45:24.092Z,1005.93
2019-02-08T06:47:16.751Z,1005.93
2019-02-08T06:48:16.636Z,1005.94
2019-02-08T06:50:09.311Z,1005.92
2019-02-08T06:51:09.185Z,1005.98
2019-02-08T06:53:01.862Z,1005.92
2019-02-08T06:54:01.728Z,1005.94
2019-02-08T06:55:54.400Z,1005.99
2019-02-08T06:56:54.280Z,1005.95
2019-02-08T06:58:46.964Z,1005.95
2019-02-08T06:59:46.830Z,1005.94
2019-02-08T07:01:39.494Z,1005.98
2019-02-08T07:02:39.385Z,1005.97
2019-02-08T07:04:32.057Z,1005.97
2019-02-08T07:05:31.933Z,1005.97
2019-02-08T07:07:24.585Z,1005.95
2019-02-08T07:08:24.478Z,1005.99
2019-02-08T07:10:17.146Z,1006.01
2019-02-08T07:11:17.020Z,1006.00
2019-02-08T07:13:09.677Z,1006.06
2019-02-08T07:14:09.614Z,1006.07
2019-02-08T07:16:02.244Z,1006.08
2019-02-08T07:17:02.110Z,1006.05
2019-02-08T07:18:54.769Z,1006.05
2019-02-08T07:19:54.658Z,1006.09
2019-02-08T07:21:47.332Z,1006.07
2019-02-08T07:22:47.206Z,1006.04
2019-02-08T07:24:39.893Z,1006.08
2019-02-08T07:25:39.746Z,1006.02
2019-02-08T21:16:42.650Z,996.48
2019-02-08T21:17:41.703Z,996.50
2019-02-08T21:19:34.367Z,996.51
2019-02-08T21:20:34.430Z,996.51
2019-02-08T21:22:26.937Z,996.49
2019-02-08T21:23:26.806Z,996.55
2019-02-08T21:25:19.965Z,996.57
2019-02-08T21:26:19.859Z,996.51
2019-02-08T21:28:12.563Z,996.46
2019-02-08T21:29:12.420Z,996.47
2019-02-08T21:31:05.093Z,996.42
2019-02-08T21:32:04.975Z,996.45
2019-02-08T21:33:57.666Z,996.37
2019-02-08T21:34:57.530Z,996.39
2019-02-08T21:36:50.196Z,996.40
2019-02-08T21:37:50.084Z,996.35
2019-02-08T21:39:42.759Z,996.25
2019-02-08T21:40:42.628Z,996.29
2019-02-08T21:42:35.304Z,996.27
2019-02-08T21:43:35.188Z,996.28
2019-02-08T21:45:28.071Z,996.38
2019-02-08T21:46:27.739Z,996.36
2019-02-08T21:48:20.409Z,996.36
2019-02-08T21:49:20.297Z,996.36
2019-02-08T21:51:13.084Z,996.36
2019-02-08T21:52:12.943Z,996.39
2019-02-08T21:54:05.608Z,996.29
2019-02-08T21:55:05.494Z,996.33
2019-02-08T21:56:58.167Z,996.32
2019-02-08T21:57:58.046Z,996.34
2019-02-08T21:59:51.939Z,996.24
2019-02-08T22:00:50.621Z,996.25
2019-02-08T22:02:43.293Z,996.18
2019-02-08T22:03:43.168Z,996.20
2019-02-08T22:05:35.836Z,996.23
2019-02-08T22:06:35.721Z,996.17
2019-02-08T22:08:28.406Z,996.13
2019-02-08T22:09:28.289Z,996.19
2019-02-08T22:11:20.961Z,996.23
2019-02-08T22:12:20.843Z,996.14
2019-02-08T22:14:13.522Z,996.09
2019-02-08T22:15:13.389Z,996.11
2019-02-08T22:17:06.084Z,996.05
2019-02-08T22:18:05.987Z,996.01
2019-02-08T22:19:58.652Z,996.05
2019-02-08T22:20:58.532Z,995.95
2019-02-08T22:22:51.216Z,995.86
2019-02-08T22:23:51.078Z,995.95
2019-02-08T22:25:43.760Z,995.85
2019-02-08T22:26:44.127Z,995.86
2019-02-08T22:28:36.740Z,995.86
2019-02-08T22:29:36.232Z,995.90
2019-02-08T22:31:28.895Z,995.89
2019-02-08T22:32:28.804Z,995.85
2019-02-08T22:34:21.484Z,995.86
2019-02-08T22:35:21.336Z,995.94
2019-02-08T22:37:14.003Z,995.88
2019-02-08T22:38:13.895Z,995.95
2019-02-08T22:40:06.573Z,995.94
2019-02-08T22:41:06.437Z,995.97
2019-02-08T22:42:59.141Z,995.96
2019-02-08T22:43:58.999Z,995.80
2019-02-08T22:45:51.679Z,995.92
2019-02-08T22:46:51.544Z,995.89
2019-02-08T22:48:44.215Z,995.79
2019-02-08T22:49:44.099Z,995.82
2019-02-08T22:51:36.814Z,995.77
2019-02-08T22:52:36.679Z,995.70
2019-02-08T22:54:29.348Z,995.73
2019-02-08T22:55:29.228Z,995.71
2019-02-08T22:57:21.914Z,995.69
2019-02-08T22:58:21.779Z,995.64
2019-02-08T23:04:27.466Z,995.65
2019-02-08T23:05:27.331Z,995.69
2019-02-08T23:07:19.993Z,995.64
2019-02-08T23:08:19.891Z,995.60
2019-02-08T23:10:12.591Z,995.57
2019-02-08T23:11:12.449Z,995.65
2019-02-08T23:13:05.123Z,995.52
2019-02-08T23:14:05.016Z,995.59
2019-02-08T23:15:57.697Z,995.51
2019-02-08T23:16:57.558Z,995.56
2019-02-08T23:18:50.226Z,995.51
2019-02-08T23:19:50.109Z,995.50
2019-02-08T23:21:44.231Z,995.46
2019-02-08T23:22:43.157Z,995.37
2019-02-08T23:24:35.817Z,995.38
2019-02-08T23:25:35.708Z,995.43
2019-02-08T23:27:28.601Z,995.38
2019-02-08T23:28:28.313Z,995.39
2019-02-08T23:30:21.070Z,995.37
2019-02-08T23:31:20.988Z,995.38
2019-02-08T23:33:13.572Z,995.46
2019-02-08T23:34:13.430Z,995.48
2019-02-08T23:36:06.107Z,995.45
2019-02-08T23:37:05.981Z,995.31
2019-02-08T23:38:58.656Z,995.30
2019-02-08T23:39:58.533Z,995.30
2019-02-08T23:41:51.193Z,995.29
2019-02-08T23:42:51.089Z,995.28
2019-02-08T23:44:43.765Z,995.28
2019-02-08T23:45:43.636Z,995.26
2019-02-08T23:47:36.310Z,995.35
2019-02-08T23:48:36.266Z,995.26
2019-02-08T23:50:29.308Z,995.35
2019-02-08T23:51:29.200Z,995.22
2019-02-08T23:53:21.566Z,995.22
2019-02-08T23:54:21.455Z,995.27
2019-02-08T23:56:14.637Z,995.26
2019-02-08T23:57:14.497Z,995.30
2019-02-08T23:59:07.169Z,995.23
